KFBG

Details ICAO KFBG
Name Simmons AAF
Region United States
Timezone America/New_York (UTC-5.0)
Plans Departing 0
Arriving 1
Stats Elevation 242 ft / 74 m (AMSL)
Location 35.131882° -78.936521°
Runways 1
Magnetic Variation 8.959° W
Sunrise 2017-12-16 12:18:54 UTC / 2017-12-16 07:18:54 Local
Sunset 2017-12-16 22:06:50 UTC / 2017-12-16 17:06:50 Local
Advertisement - Login to hide

Runways

ID Width Length Bearing (true) Bearing (mag) Surface Threshold Offset Overrun Length
09 100 ft / 30 m 4,645 ft / 1,416 m 85.91° 94.87° Asphalt 1,050 ft / 320 m 0 ft / 0 m
27 100 ft / 30 m 4,645 ft / 1,416 m 265.91° 274.87° Asphalt 0 ft / 0 m 0 ft / 0 m

Map

Weather


0- 5 10 15 20 25 30 35+ Temperature / ° C

Clouds and Precipitation
Forecast for 2017-12-17 06:00 UTC. Updated an hour ago

Ground ~20,000 ft ~40,000 ft Winds

METAR

KFBG 170156Z AUTO 00000KT 10SM CLR 02/M02 A3026 RMK AO2 SLP252 T00181023

TAF

TAF KFBG 170200Z 1702/1808 23006KT 9999 SKC QNH3025INS BECMG 1711/1712 19006KT 9999 SCT100 QNH3028INS BECMG 1719/1720 25006KT 9999 BKN060 OVC120 QNH3025INS TX14/1719Z TN00/1710Z

Frequencies

Ground 121.90 MHz GND/CLNC DEL
Approach 133.00 MHz FAYETTEVILLE APP/DEP
Tower 125.90 MHz TWR
Warning: Do not use this data for real-world aviation or navigation. No guarantee of current accuracy is given.